createdAt,value
2022-12-03T00:00:12.510Z,6.18
2022-12-03T00:03:00.346Z,7.06
2022-12-03T00:05:31.159Z,5.93
2022-12-03T00:07:58.429Z,5.52
2022-12-03T00:10:26.313Z,4.68
2022-12-03T00:12:53.503Z,4.61
2022-12-03T00:15:21.041Z,5.48
2022-12-03T00:17:48.360Z,5.57
2022-12-03T00:20:22.416Z,5.18
2022-12-03T00:22:50.052Z,4.56
2022-12-03T00:25:18.146Z,4.91
2022-12-03T00:27:45.302Z,4.44
2022-12-03T00:30:13.554Z,4.98
2022-12-03T00:32:40.841Z,6.28
2022-12-03T00:35:11.532Z,5.33
2022-12-03T00:37:38.861Z,4.87
2022-12-03T00:40:07.710Z,6.74
2022-12-03T00:42:34.852Z,7.22
2022-12-03T00:45:02.539Z,6.61
2022-12-03T00:47:29.709Z,5.45
2022-12-03T00:49:57.309Z,6.51
2022-12-03T00:52:24.465Z,7.27
2022-12-03T00:54:52.137Z,6.08
2022-12-03T00:57:19.392Z,6.43
2022-12-03T00:59:48.912Z,5.26
2022-12-03T01:02:16.205Z,6.72
2022-12-03T01:04:46.316Z,6.04
2022-12-03T01:07:13.842Z,5.70
2022-12-03T01:09:41.200Z,5.42
2022-12-03T01:12:12.246Z,4.52
2022-12-03T01:14:39.836Z,6.08
2022-12-03T01:17:07.158Z,6.98
2022-12-03T01:19:35.536Z,7.34
2022-12-03T01:22:02.756Z,5.48
2022-12-03T01:24:30.551Z,5.38
2022-12-03T01:26:58.259Z,6.44
2022-12-03T01:29:25.637Z,6.37
2022-12-03T01:32:11.434Z,6.05
2022-12-03T01:34:38.975Z,6.73
2022-12-03T01:37:06.540Z,6.74
2022-12-03T01:39:35.142Z,6.67
2022-12-03T01:42:05.069Z,5.75
2022-12-03T01:44:37.128Z,6.13
2022-12-03T01:47:11.042Z,6.12
2022-12-03T01:50:42.800Z,6.15
2022-12-03T01:53:19.369Z,5.35
2022-12-03T02:15:11.906Z,6.81
2022-12-03T02:24:17.415Z,4.73
2022-12-03T02:26:46.317Z,6.19
2022-12-03T02:29:18.251Z,6.23
2022-12-03T02:31:52.285Z,4.61
2022-12-03T02:34:49.180Z,3.76
2022-12-03T02:37:37.368Z,6.15
2022-12-03T02:40:19.063Z,3.78
2022-12-03T02:45:43.648Z,5.43
2022-12-03T02:51:11.565Z,5.04
2022-12-03T02:53:48.261Z,4.57
2022-12-03T02:56:28.165Z,5.57
2022-12-03T02:59:13.720Z,4.18
2022-12-03T03:01:47.335Z,3.77
2022-12-03T03:04:21.202Z,3.24
2022-12-03T03:09:35.255Z,4.35
2022-12-03T03:12:03.012Z,5.14
2022-12-03T03:14:30.179Z,5.47
2022-12-03T03:16:58.702Z,5.17
2022-12-03T03:19:26.989Z,3.80
2022-12-03T03:21:57.594Z,5.02
2022-12-03T03:24:25.943Z,4.91
2022-12-03T03:26:53.610Z,5.40
2022-12-03T03:29:20.925Z,4.43
2022-12-03T03:31:48.905Z,5.16
2022-12-03T03:34:17.057Z,6.35
2022-12-03T03:36:45.835Z,6.37
2022-12-03T03:39:13.888Z,5.75
2022-12-03T03:41:42.593Z,5.26
2022-12-03T03:44:10.624Z,5.50
2022-12-03T03:46:41.349Z,5.72
2022-12-03T03:49:10.838Z,5.01
2022-12-03T03:51:41.683Z,6.08
2022-12-03T03:54:11.842Z,5.79
2022-12-03T03:56:42.094Z,5.62
2022-12-03T03:59:09.505Z,5.49
2022-12-03T04:01:37.220Z,4.87
2022-12-03T04:04:11.913Z,3.16
2022-12-03T04:06:39.348Z,3.26
2022-12-03T04:09:06.731Z,4.11
2022-12-03T04:11:52.455Z,3.73
2022-12-03T04:14:19.930Z,5.76
2022-12-03T04:16:47.049Z,6.14
2022-12-03T04:19:17.137Z,5.68
2022-12-03T04:22:04.885Z,5.31
2022-12-03T04:24:32.378Z,5.74
2022-12-03T04:27:18.189Z,4.49
2022-12-03T04:29:46.123Z,3.78
2022-12-03T04:32:31.850Z,3.07
2022-12-03T04:35:18.182Z,4.12
2022-12-03T04:37:45.386Z,3.42
2022-12-03T04:40:45.366Z,4.73
2022-12-03T04:43:15.878Z,4.80
2022-12-03T04:45:43.389Z,6.15
2022-12-03T04:48:10.411Z,5.61
2022-12-03T04:50:37.997Z,5.63
2022-12-03T04:53:05.215Z,5.52
2022-12-03T04:55:32.611Z,5.73
2022-12-03T04:57:59.871Z,5.66
2022-12-03T05:00:27.506Z,6.57
2022-12-03T05:02:57.758Z,5.56
2022-12-03T05:05:25.278Z,5.74
2022-12-03T05:07:52.774Z,5.83
2022-12-03T05:10:19.931Z,6.20
2022-12-03T05:12:47.499Z,7.12
2022-12-03T05:15:14.864Z,6.73
2022-12-03T05:17:42.258Z,5.90
2022-12-03T05:20:28.353Z,6.21
2022-12-03T05:22:55.902Z,4.69
2022-12-03T05:25:22.993Z,6.50
2022-12-03T05:27:50.364Z,6.14
2022-12-03T05:30:20.026Z,6.37
2022-12-03T05:32:47.525Z,6.05
2022-12-03T05:35:14.639Z,6.09
2022-12-03T05:37:42.001Z,6.23
2022-12-03T05:40:13.024Z,4.38
2022-12-03T05:42:57.135Z,5.41
2022-12-03T05:45:25.971Z,4.61
2022-12-03T05:47:55.480Z,6.43
2022-12-03T05:50:24.746Z,5.11
2022-12-03T05:52:52.434Z,6.54
2022-12-03T05:55:23.111Z,6.90
2022-12-03T05:57:50.509Z,6.84
2022-12-03T06:00:21.673Z,6.57
2022-12-03T06:02:49.810Z,7.16
2022-12-03T06:05:19.719Z,6.97
2022-12-03T06:07:51.358Z,6.73
2022-12-03T06:10:23.862Z,6.94
2022-12-03T06:12:52.435Z,7.39
2022-12-03T06:15:20.391Z,5.74
2022-12-03T06:17:48.488Z,5.72
2022-12-03T06:20:19.612Z,6.26
2022-12-03T06:22:48.066Z,7.40
2022-12-03T06:25:16.811Z,6.13
2022-12-03T06:27:44.624Z,5.34
2022-12-03T06:30:15.159Z,5.05
2022-12-03T06:32:42.814Z,4.76
2022-12-03T06:35:10.070Z,6.17
2022-12-03T06:37:37.632Z,5.43
2022-12-03T06:40:05.103Z,4.65
2022-12-03T06:42:32.573Z,3.98
2022-12-03T06:45:02.275Z,5.40
2022-12-03T06:47:30.056Z,4.95
2022-12-03T06:49:59.651Z,3.57
2022-12-03T06:52:27.729Z,3.93
2022-12-03T06:54:57.577Z,4.27
2022-12-03T06:57:25.498Z,6.10
2022-12-03T07:00:04.058Z,6.15
2022-12-03T07:02:33.969Z,4.57
2022-12-03T07:05:00.998Z,5.34
2022-12-03T07:07:29.683Z,6.44
2022-12-03T07:09:56.980Z,7.06
2022-12-03T07:12:29.283Z,6.12
2022-12-03T07:14:56.568Z,7.20
2022-12-03T07:17:27.255Z,6.37
2022-12-03T07:19:54.270Z,4.28
2022-12-03T07:22:21.291Z,7.15
2022-12-03T07:24:50.759Z,7.84
2022-12-03T07:27:22.578Z,7.19
2022-12-03T07:30:09.766Z,7.15
2022-12-03T07:32:39.703Z,6.98
2022-12-03T07:35:08.015Z,6.94
2022-12-03T07:37:35.561Z,5.39
2022-12-03T07:40:04.806Z,7.23
2022-12-03T07:42:32.273Z,5.61
2022-12-03T07:45:02.487Z,6.52
2022-12-03T07:47:29.638Z,7.29
2022-12-03T07:49:57.346Z,7.10
2022-12-03T07:52:26.106Z,7.81
2022-12-03T07:55:00.876Z,8.73
2022-12-03T07:57:28.241Z,9.39
2022-12-03T08:00:00.792Z,5.71
2022-12-03T08:02:33.996Z,8.63
2022-12-03T08:05:01.781Z,8.31
2022-12-03T08:07:29.554Z,8.43
2022-12-03T08:09:57.048Z,8.05
2022-12-03T08:12:41.472Z,7.75
2022-12-03T08:15:15.265Z,8.02
2022-12-03T08:17:43.867Z,7.98
2022-12-03T08:20:14.129Z,7.23
2022-12-03T08:22:45.645Z,7.65
2022-12-03T08:25:25.954Z,6.62
2022-12-03T08:28:00.379Z,6.68
2022-12-03T08:30:27.873Z,6.75
2022-12-03T08:32:58.142Z,7.66
2022-12-03T08:35:30.052Z,6.68
2022-12-03T08:38:11.742Z,7.14
2022-12-03T08:40:44.109Z,7.20
2022-12-03T08:43:23.447Z,8.00
2022-12-03T08:45:55.777Z,6.87
2022-12-03T08:48:28.040Z,8.47
2022-12-03T08:51:01.793Z,9.03
2022-12-03T08:53:46.251Z,8.97
2022-12-03T08:56:29.008Z,6.99
2022-12-03T08:58:59.311Z,8.95
2022-12-03T09:01:42.033Z,8.34
2022-12-03T09:04:37.493Z,8.34
2022-12-03T09:07:05.423Z,7.65
2022-12-03T09:09:32.547Z,6.53
2022-12-03T09:12:02.339Z,5.35
2022-12-03T09:14:29.934Z,6.90
2022-12-03T09:16:57.535Z,7.80
2022-12-03T09:19:26.813Z,8.29
2022-12-03T09:21:55.074Z,9.65
2022-12-03T09:24:22.390Z,10.11
2022-12-03T09:26:50.121Z,10.14
2022-12-03T09:29:17.269Z,10.50
2022-12-03T09:31:44.815Z,10.74
2022-12-03T09:34:15.210Z,10.62
2022-12-03T09:36:42.699Z,10.35
2022-12-03T09:39:11.499Z,10.53
2022-12-03T09:41:39.391Z,10.99
2022-12-03T09:44:09.640Z,7.91
2022-12-03T09:46:43.120Z,5.56
2022-12-03T09:49:16.043Z,5.83
2022-12-03T09:51:45.744Z,7.13
2022-12-03T09:54:24.352Z,7.90
2022-12-03T09:56:52.973Z,7.06
2022-12-03T09:59:21.872Z,5.82
2022-12-03T10:01:49.716Z,4.69
2022-12-03T10:04:17.164Z,4.64
2022-12-03T10:06:46.187Z,6.70
2022-12-03T10:09:17.721Z,7.32
2022-12-03T10:11:45.242Z,7.87
2022-12-03T10:14:15.072Z,7.68
2022-12-03T10:16:42.761Z,8.38
2022-12-03T10:19:18.303Z,6.08
2022-12-03T10:21:45.974Z,6.14
2022-12-03T10:24:25.982Z,5.30
2022-12-03T10:26:56.439Z,5.98
2022-12-03T10:29:32.892Z,7.48
2022-12-03T10:32:09.649Z,8.16
2022-12-03T10:34:39.967Z,6.68
2022-12-03T10:37:16.298Z,6.74
2022-12-03T10:39:55.733Z,5.46
2022-12-03T10:42:34.040Z,5.54
2022-12-03T10:45:23.015Z,7.17
2022-12-03T10:48:14.690Z,6.58
2022-12-03T10:50:56.912Z,7.56
2022-12-03T10:53:29.024Z,4.54
2022-12-03T10:55:59.907Z,5.38
2022-12-03T10:58:39.930Z,5.70
2022-12-03T11:01:24.123Z,5.73
2022-12-03T11:03:53.091Z,7.19
2022-12-03T11:06:22.703Z,8.02
2022-12-03T11:08:58.409Z,9.07
2022-12-03T11:11:29.284Z,8.32
2022-12-03T11:14:00.851Z,8.72
2022-12-03T11:16:39.825Z,5.83
2022-12-03T11:19:13.423Z,4.96
2022-12-03T11:22:01.125Z,4.78
2022-12-03T11:24:28.895Z,4.41
2022-12-03T11:26:55.913Z,5.36
2022-12-03T11:29:46.544Z,6.18
2022-12-03T11:32:55.498Z,7.04
2022-12-03T11:35:37.102Z,7.94
2022-12-03T11:38:50.739Z,6.48
2022-12-03T11:41:26.822Z,7.27
2022-12-03T11:43:56.199Z,6.55
2022-12-03T11:46:31.194Z,5.64
2022-12-03T11:49:01.461Z,7.38
2022-12-03T11:51:30.936Z,8.01
2022-12-03T11:54:00.037Z,8.11
2022-12-03T11:56:29.879Z,8.51
2022-12-03T11:59:02.877Z,6.26
2022-12-03T12:01:38.531Z,4.87
2022-12-03T12:04:27.439Z,3.83
2022-12-03T12:06:55.234Z,3.77
2022-12-03T12:09:53.627Z,5.32
2022-12-03T12:12:31.197Z,5.86
2022-12-03T12:14:59.335Z,6.24
2022-12-03T12:17:36.188Z,4.77
2022-12-03T12:20:24.795Z,5.46
2022-12-03T12:22:54.488Z,6.25
2022-12-03T12:25:53.778Z,6.60
2022-12-03T12:28:21.896Z,6.85
2022-12-03T12:30:49.141Z,7.47
2022-12-03T12:33:24.736Z,7.39
2022-12-03T12:35:52.169Z,6.01
2022-12-03T12:38:21.560Z,6.68
2022-12-03T12:40:50.389Z,6.32
2022-12-03T12:43:24.569Z,6.36
2022-12-03T12:45:56.901Z,7.87
2022-12-03T12:48:27.226Z,8.48
2022-12-03T12:51:14.941Z,6.47
2022-12-03T12:53:43.197Z,6.23
2022-12-03T12:56:31.718Z,5.00
2022-12-03T12:59:09.698Z,4.84
2022-12-03T13:01:36.914Z,6.25
2022-12-03T13:04:15.813Z,5.20
2022-12-03T13:06:43.887Z,5.96
2022-12-03T13:09:24.247Z,6.05
2022-12-03T13:12:04.344Z,6.82
2022-12-03T13:14:35.360Z,6.67
2022-12-03T13:17:14.199Z,7.91
2022-12-03T13:19:48.279Z,5.43
2022-12-03T13:22:20.471Z,7.10
2022-12-03T13:24:53.498Z,7.67
2022-12-03T13:27:20.674Z,7.51
2022-12-03T13:29:56.345Z,7.80
2022-12-03T13:32:34.625Z,7.34
2022-12-03T13:35:07.081Z,6.90
2022-12-03T13:37:34.268Z,5.38
2022-12-03T13:40:33.196Z,4.74
2022-12-03T13:43:04.070Z,6.08
2022-12-03T13:45:41.762Z,6.15
2022-12-03T13:48:25.505Z,6.43
2022-12-03T13:50:54.377Z,6.06
2022-12-03T13:53:40.700Z,4.86
2022-12-03T13:56:20.714Z,6.36
2022-12-03T13:58:47.861Z,7.58
2022-12-03T14:01:15.538Z,7.95
2022-12-03T14:03:45.615Z,8.30
2022-12-03T14:06:15.753Z,7.78
2022-12-03T14:08:43.196Z,7.02
2022-12-03T14:11:32.770Z,6.05
2022-12-03T14:14:00.456Z,5.33
2022-12-03T14:16:28.188Z,6.74
2022-12-03T14:18:55.328Z,6.28
2022-12-03T14:21:22.827Z,5.13
2022-12-03T14:23:52.334Z,7.40
2022-12-03T14:26:20.055Z,6.99
2022-12-03T14:28:47.291Z,6.32
2022-12-03T14:31:14.927Z,7.18
2022-12-03T14:33:42.104Z,6.71
2022-12-03T14:36:09.881Z,4.88
2022-12-03T14:38:36.976Z,4.96
2022-12-03T14:41:04.490Z,6.32
2022-12-03T14:43:31.531Z,6.22
2022-12-03T14:45:59.347Z,5.87
2022-12-03T14:48:27.905Z,5.06
2022-12-03T14:50:55.581Z,6.80
2022-12-03T14:53:27.205Z,7.26
2022-12-03T14:55:59.421Z,6.13
2022-12-03T14:58:27.131Z,6.89
2022-12-03T15:00:54.756Z,5.90
2022-12-03T15:03:22.772Z,7.00
2022-12-03T15:05:50.492Z,7.35
2022-12-03T15:08:17.688Z,6.79
2022-12-03T15:10:45.388Z,7.18
2022-12-03T15:13:12.593Z,6.82
2022-12-03T15:15:40.406Z,6.71
2022-12-03T15:18:07.512Z,7.33
2022-12-03T15:20:35.858Z,7.13
2022-12-03T15:23:03.082Z,6.24
2022-12-03T15:25:46.097Z,7.09
2022-12-03T15:28:13.394Z,6.18
2022-12-03T15:30:40.933Z,5.75
2022-12-03T15:33:08.429Z,5.84
2022-12-03T15:35:36.197Z,6.34
2022-12-03T15:38:03.533Z,6.79
2022-12-03T15:40:31.099Z,6.53
2022-12-03T15:42:58.210Z,7.27
2022-12-03T15:45:25.641Z,5.43
2022-12-03T15:47:52.746Z,7.08
2022-12-03T15:50:21.549Z,5.69
2022-12-03T15:52:48.728Z,6.43
2022-12-03T15:55:16.608Z,7.15
2022-12-03T15:57:43.891Z,5.32
2022-12-03T16:00:13.566Z,6.34
2022-12-03T16:02:42.725Z,7.19
2022-12-03T16:05:13.849Z,6.62
2022-12-03T16:07:41.329Z,6.90
2022-12-03T16:10:10.861Z,7.28
2022-12-03T16:12:38.039Z,6.82
2022-12-03T16:15:06.056Z,7.14
2022-12-03T16:17:33.233Z,7.52
2022-12-03T16:20:00.902Z,6.93
2022-12-03T16:22:28.071Z,6.70
2022-12-03T16:24:55.720Z,6.87
2022-12-03T16:27:25.810Z,5.39
2022-12-03T16:29:57.281Z,6.83
2022-12-03T16:32:24.883Z,6.60
2022-12-03T16:34:52.489Z,6.64
2022-12-03T16:37:19.810Z,6.72
2022-12-03T16:39:47.680Z,5.46
2022-12-03T16:42:17.591Z,5.71
2022-12-03T16:45:14.756Z,5.76
2022-12-03T16:47:42.088Z,7.00
2022-12-03T16:50:14.552Z,6.70
2022-12-03T16:52:43.121Z,5.56
2022-12-03T16:55:10.647Z,5.90
2022-12-03T16:57:37.840Z,5.22
2022-12-03T17:00:07.469Z,6.46
2022-12-03T17:02:34.754Z,6.25
2022-12-03T17:05:02.471Z,6.38
2022-12-03T17:07:38.729Z,6.02
2022-12-03T17:10:13.603Z,5.18
2022-12-03T17:13:08.287Z,5.97
2022-12-03T17:15:28.786Z,5.99
2022-12-03T17:17:56.132Z,6.30
2022-12-03T17:20:24.198Z,5.81
2022-12-03T17:22:52.165Z,6.87
2022-12-03T17:25:20.045Z,5.68
2022-12-03T17:27:47.128Z,5.02
2022-12-03T17:30:15.786Z,5.66
2022-12-03T17:32:44.331Z,5.22
2022-12-03T17:35:12.010Z,4.54
2022-12-03T17:37:39.131Z,5.68
2022-12-03T17:40:13.606Z,5.87
2022-12-03T17:42:40.717Z,5.60
2022-12-03T17:45:10.189Z,5.86
2022-12-03T17:47:37.549Z,5.17
2022-12-03T17:50:06.554Z,5.89
2022-12-03T17:52:33.812Z,6.67
2022-12-03T17:55:27.726Z,6.24
2022-12-03T17:57:48.388Z,6.28
2022-12-03T18:00:16.040Z,6.86
2022-12-03T18:02:43.202Z,6.16
2022-12-03T18:05:10.869Z,6.35
2022-12-03T18:07:37.865Z,6.55
2022-12-03T18:10:06.553Z,6.53
2022-12-03T18:12:39.110Z,6.32
2022-12-03T18:15:09.746Z,6.71
2022-12-03T18:17:37.562Z,5.86
2022-12-03T18:20:05.816Z,6.66
2022-12-03T18:22:33.355Z,6.64
2022-12-03T18:25:01.135Z,5.80
2022-12-03T18:27:28.322Z,7.00
2022-12-03T18:30:12.605Z,7.27
2022-12-03T18:32:39.834Z,6.30
2022-12-03T18:35:07.946Z,5.37
2022-12-03T18:37:35.324Z,6.50
2022-12-03T18:40:12.480Z,6.67
2022-12-03T18:42:41.504Z,5.00
2022-12-03T18:45:13.211Z,4.44
2022-12-03T18:47:40.599Z,6.04
2022-12-03T18:50:09.819Z,5.23
2022-12-03T18:52:37.314Z,5.54
2022-12-03T18:55:05.493Z,7.19
2022-12-03T18:57:32.694Z,7.64
2022-12-03T19:00:02.493Z,5.09
2022-12-03T19:03:01.377Z,5.27
2022-12-03T19:05:17.318Z,6.26
2022-12-03T19:07:44.588Z,7.19
2022-12-03T19:10:15.030Z,7.65
2022-12-03T19:12:42.181Z,7.80
2022-12-03T19:15:10.423Z,8.36
2022-12-03T19:17:40.457Z,7.38
2022-12-03T19:20:10.496Z,8.14
2022-12-03T19:22:38.045Z,7.66
2022-12-03T19:25:08.117Z,6.94
2022-12-03T19:27:35.543Z,6.86
2022-12-03T19:30:03.037Z,5.61
2022-12-03T19:32:30.080Z,5.99
2022-12-03T19:34:58.780Z,6.00
2022-12-03T19:37:25.814Z,6.44
2022-12-03T19:39:54.554Z,5.69
2022-12-03T19:42:28.055Z,5.95
2022-12-03T19:45:07.331Z,4.37
2022-12-03T19:47:35.750Z,6.78
2022-12-03T19:50:04.913Z,6.22
2022-12-03T19:52:35.571Z,6.29
2022-12-03T19:55:03.132Z,5.36
2022-12-03T19:57:30.187Z,4.97
2022-12-03T19:59:57.900Z,4.95
2022-12-03T20:02:25.151Z,5.48
2022-12-03T20:04:53.010Z,5.49
2022-12-03T20:07:20.248Z,5.85
2022-12-03T20:09:50.698Z,5.16
2022-12-03T20:12:17.728Z,6.15
2022-12-03T20:14:45.603Z,5.25
2022-12-03T20:17:12.655Z,4.99
2022-12-03T20:19:40.088Z,5.32
2022-12-03T20:22:07.048Z,5.74
2022-12-03T20:24:34.766Z,6.32
2022-12-03T20:27:01.911Z,5.10
2022-12-03T20:29:29.349Z,6.50
2022-12-03T20:31:56.528Z,6.88
2022-12-03T20:34:24.105Z,5.77
2022-12-03T20:36:51.247Z,5.46
2022-12-03T20:39:18.914Z,6.05
2022-12-03T20:41:46.046Z,7.19
2022-12-03T20:44:14.198Z,6.50
2022-12-03T20:46:42.696Z,5.08
2022-12-03T20:49:10.385Z,4.95
2022-12-03T20:51:37.656Z,5.55
2022-12-03T20:54:05.690Z,6.13
2022-12-03T20:56:36.176Z,6.64
2022-12-03T20:59:06.688Z,6.81
2022-12-03T21:01:38.700Z,6.51
2022-12-03T21:04:07.804Z,6.06
2022-12-03T21:06:37.160Z,6.53
2022-12-03T21:09:09.397Z,6.15
